Terminal Aerodrome Forecast
Issued by NWS

Home | Current Version | Previous Version | Graphics & Text | Print | Product List | Glossary On
Versions: 1 2 3 4 5 6 7 8 9 10 11 12 13 14 15 16
300
FTUS43 KGRB 181128
TAFMTW
TAF
KMTW 181128Z 1812/1912 21006KT P6SM SCT035 BKN140
     FM181700 18013G19KT P6SM BKN140
     FM190000 23006KT P6SM VCSH SCT040 BKN080
      TEMPO 1901/1905 3SM TSRA BKN030CB
     FM190600 30007KT P6SM VCSH SCT015 BKN060=

USA.gov is the U.S. government's official web portal to all federal, state and local government web resources and services.